createdAt,value
2023-02-17T00:02:15.657Z,7.21
2023-02-17T00:04:42.172Z,7.20
2023-02-17T00:07:08.789Z,7.21
2023-02-17T00:09:36.864Z,7.19
2023-02-17T00:12:03.437Z,7.22
2023-02-17T00:14:29.870Z,7.27
2023-02-17T00:16:56.287Z,7.29
2023-02-17T00:19:25.855Z,7.23
2023-02-17T00:21:55.980Z,7.27
2023-02-17T00:24:24.102Z,7.25
2023-02-17T00:26:50.782Z,7.22
2023-02-17T00:29:17.673Z,7.24
2023-02-17T00:31:45.487Z,7.27
2023-02-17T00:34:12.730Z,7.26
2023-02-17T00:36:39.494Z,7.29
2023-02-17T00:39:06.951Z,7.33
2023-02-17T00:41:33.711Z,7.32
2023-02-17T00:44:00.443Z,7.30
2023-02-17T00:46:27.345Z,7.28
2023-02-17T00:48:53.841Z,7.30
2023-02-17T00:51:21.401Z,7.27
2023-02-17T00:53:47.842Z,7.30
2023-02-17T00:56:14.859Z,7.28
2023-02-17T00:58:41.743Z,7.27
2023-02-17T01:01:09.646Z,7.26
2023-02-17T01:03:40.893Z,7.29
2023-02-17T01:06:09.926Z,7.34
2023-02-17T01:08:36.788Z,7.24
2023-02-17T01:11:04.713Z,7.28
2023-02-17T01:13:31.779Z,7.33
2023-02-17T01:15:59.294Z,7.38
2023-02-17T01:18:26.995Z,7.38
2023-02-17T01:20:53.398Z,7.34
2023-02-17T01:23:20.138Z,7.39
2023-02-17T01:25:47.834Z,7.47
2023-02-17T01:28:20.421Z,7.46
2023-02-17T01:30:48.067Z,7.42
2023-02-17T01:33:14.707Z,7.44
2023-02-17T01:35:41.279Z,7.47
2023-02-17T01:38:07.769Z,7.51
2023-02-17T01:40:34.211Z,7.49
2023-02-17T01:43:00.665Z,7.55
2023-02-17T01:45:32.742Z,7.53
2023-02-17T01:48:05.017Z,7.63
2023-02-17T01:50:49.259Z,7.56
2023-02-17T01:53:21.446Z,7.57
2023-02-17T01:55:48.969Z,7.61
2023-02-17T01:58:19.491Z,7.63
2023-02-17T02:00:48.706Z,7.68
2023-02-17T02:03:15.392Z,7.65
2023-02-17T02:05:42.597Z,7.68
2023-02-17T02:08:10.992Z,7.73
2023-02-17T02:10:38.351Z,7.74
2023-02-17T02:13:06.878Z,7.75
2023-02-17T02:16:18.165Z,7.71
2023-02-17T02:19:13.309Z,7.75
2023-02-17T02:22:10.271Z,7.78
2023-02-17T02:24:59.258Z,7.77
2023-02-17T02:27:44.488Z,7.80
2023-02-17T02:30:25.583Z,7.80
2023-02-17T02:33:01.374Z,7.81
2023-02-17T02:35:56.394Z,7.82
2023-02-17T02:38:37.178Z,7.91
2023-02-17T02:41:11.688Z,7.83
2023-02-17T02:43:38.952Z,7.79
2023-02-17T02:46:06.056Z,7.82
2023-02-17T02:48:32.926Z,7.79
2023-02-17T02:51:14.536Z,7.75
2023-02-17T02:54:25.865Z,7.83
2023-02-17T02:57:14.660Z,7.82
2023-02-17T02:59:55.475Z,7.83
2023-02-17T03:02:37.917Z,7.82
2023-02-17T03:05:45.743Z,7.85
2023-02-17T03:08:15.486Z,7.87
2023-02-17T03:11:01.027Z,7.89
2023-02-17T03:13:33.730Z,7.93
2023-02-17T03:16:00.518Z,7.97
2023-02-17T03:18:26.924Z,7.94
2023-02-17T03:21:00.479Z,7.87
2023-02-17T03:23:26.885Z,7.89
2023-02-17T03:25:53.307Z,7.91
2023-02-17T03:28:19.830Z,7.88
2023-02-17T03:30:47.185Z,7.93
2023-02-17T03:33:13.575Z,7.84
2023-02-17T03:35:39.983Z,7.91
2023-02-17T03:38:06.375Z,7.91
2023-02-17T03:40:32.865Z,7.82
2023-02-17T03:42:59.268Z,7.78
2023-02-17T03:45:25.780Z,7.81
2023-02-17T03:47:52.247Z,7.83
2023-02-17T03:50:18.788Z,7.79
2023-02-17T03:52:45.989Z,7.70
2023-02-17T03:55:12.406Z,7.66
2023-02-17T03:57:38.873Z,7.66
2023-02-17T04:00:07.085Z,7.67
2023-02-17T04:02:41.094Z,7.73
2023-02-17T04:05:08.611Z,7.72
2023-02-17T04:07:34.996Z,7.80
2023-02-17T04:10:02.707Z,7.72
2023-02-17T04:12:31.023Z,7.65
2023-02-17T04:14:57.438Z,7.63
2023-02-17T04:17:23.855Z,7.71
2023-02-17T04:19:50.289Z,7.73
2023-02-17T04:22:16.746Z,7.75
2023-02-17T04:24:43.150Z,7.66
2023-02-17T04:27:09.553Z,7.59
2023-02-17T04:29:36.003Z,7.61
2023-02-17T04:32:02.581Z,7.60
2023-02-17T04:34:29.091Z,7.57
2023-02-17T04:36:55.506Z,7.60
2023-02-17T04:39:22.031Z,7.61
2023-02-17T04:41:48.606Z,7.45
2023-02-17T04:44:15.100Z,7.47
2023-02-17T04:46:41.533Z,7.48
2023-02-17T04:49:07.943Z,7.48
2023-02-17T04:51:34.364Z,7.50
2023-02-17T04:54:00.774Z,7.59
2023-02-17T04:56:27.310Z,7.63
2023-02-17T04:58:53.771Z,7.65
2023-02-17T05:01:20.219Z,7.63
2023-02-17T05:03:46.778Z,7.59
2023-02-17T05:06:13.249Z,7.59
2023-02-17T05:08:39.733Z,7.67
2023-02-17T05:11:06.134Z,7.73
2023-02-17T05:13:33.247Z,7.72
2023-02-17T05:15:59.733Z,7.68
2023-02-17T05:18:26.143Z,7.74
2023-02-17T05:20:52.548Z,7.77
2023-02-17T05:23:18.941Z,7.71
2023-02-17T05:25:45.392Z,7.73
2023-02-17T05:28:11.808Z,7.70
2023-02-17T05:30:38.227Z,7.65
2023-02-17T05:33:04.625Z,7.57
2023-02-17T05:35:31.145Z,7.46
2023-02-17T05:37:57.542Z,7.49
2023-02-17T05:40:23.955Z,7.61
2023-02-17T05:42:50.357Z,7.60
2023-02-17T05:45:16.866Z,7.51
2023-02-17T05:47:43.311Z,7.57
2023-02-17T05:50:10.121Z,7.43
2023-02-17T05:52:36.569Z,7.51
2023-02-17T05:55:04.662Z,7.49
2023-02-17T05:57:31.556Z,7.48
2023-02-17T05:59:58.161Z,7.42
2023-02-17T06:02:24.560Z,7.42
2023-02-17T06:04:51.156Z,7.46
2023-02-17T06:07:17.588Z,7.52
2023-02-17T06:09:45.863Z,7.48
2023-02-17T06:12:13.385Z,7.53
2023-02-17T06:14:39.797Z,7.45
2023-02-17T06:17:06.316Z,7.47
2023-02-17T06:19:32.721Z,7.38
2023-02-17T06:21:59.185Z,7.37
2023-02-17T06:24:25.587Z,7.40
2023-02-17T06:26:52.035Z,7.41
2023-02-17T06:29:18.524Z,7.42
2023-02-17T06:31:45.006Z,7.35
2023-02-17T06:34:11.737Z,7.39
2023-02-17T06:36:38.165Z,7.37
2023-02-17T06:39:04.606Z,7.36
2023-02-17T06:41:31.101Z,7.34
2023-02-17T06:43:57.481Z,7.38
2023-02-17T06:46:23.891Z,7.42
2023-02-17T06:48:50.315Z,7.45
2023-02-17T06:51:16.713Z,7.34
2023-02-17T06:53:43.105Z,7.40
2023-02-17T06:56:09.514Z,7.51
2023-02-17T06:58:37.059Z,7.51
2023-02-17T07:01:04.164Z,7.46
2023-02-17T07:03:32.106Z,7.33
2023-02-17T07:05:59.780Z,7.42
2023-02-17T07:08:26.177Z,7.39
2023-02-17T07:10:52.616Z,7.32
2023-02-17T07:13:19.118Z,7.29
2023-02-17T07:15:45.526Z,7.38
2023-02-17T07:18:11.931Z,7.38
2023-02-17T07:20:39.402Z,7.28
2023-02-17T07:23:05.943Z,7.30
2023-02-17T07:25:32.375Z,7.39
2023-02-17T07:27:59.784Z,7.42
2023-02-17T07:30:26.252Z,7.33
2023-02-17T07:32:52.685Z,7.39
2023-02-17T07:35:19.094Z,7.47
2023-02-17T07:37:45.500Z,7.43
2023-02-17T07:40:12.432Z,7.34
2023-02-17T07:42:38.846Z,7.31
2023-02-17T07:45:05.927Z,7.32
2023-02-17T07:47:33.033Z,7.30
2023-02-17T07:49:59.465Z,7.35
2023-02-17T07:52:25.971Z,7.34
2023-02-17T07:54:52.360Z,7.41
2023-02-17T07:57:18.794Z,7.34
2023-02-17T07:59:46.495Z,7.39
2023-02-17T08:02:14.042Z,7.53
2023-02-17T08:04:40.468Z,7.45
2023-02-17T08:07:07.013Z,7.58
2023-02-17T08:09:51.833Z,7.47
2023-02-17T08:12:38.609Z,7.55
2023-02-17T08:15:07.177Z,7.54
2023-02-17T08:17:33.740Z,7.52
2023-02-17T08:20:05.879Z,7.61
2023-02-17T08:22:34.884Z,7.79
2023-02-17T08:25:01.319Z,7.73
2023-02-17T08:27:27.762Z,7.84
2023-02-17T08:29:55.730Z,7.88
2023-02-17T08:32:22.466Z,7.89
2023-02-17T08:34:49.147Z,7.83
2023-02-17T08:37:15.598Z,7.91
2023-02-17T08:39:42.006Z,8.09
2023-02-17T08:42:08.433Z,7.99
2023-02-17T08:44:36.420Z,8.08
2023-02-17T08:47:05.051Z,8.24
2023-02-17T08:49:32.677Z,8.39
2023-02-17T08:52:00.267Z,8.30
2023-02-17T08:54:27.185Z,8.45
2023-02-17T08:56:53.742Z,8.51
2023-02-17T08:59:20.598Z,8.50
2023-02-17T09:01:47.141Z,8.28
2023-02-17T09:04:15.243Z,8.18
2023-02-17T09:06:45.833Z,8.22
2023-02-17T09:09:14.380Z,8.20
2023-02-17T09:11:41.078Z,8.16
2023-02-17T09:14:07.986Z,8.11
2023-02-17T09:16:34.820Z,8.25
2023-02-17T09:19:01.306Z,8.19
2023-02-17T09:21:27.738Z,8.19
2023-02-17T09:23:54.183Z,8.43
2023-02-17T09:26:21.415Z,8.48
2023-02-17T09:28:48.359Z,8.64
2023-02-17T09:31:21.114Z,8.71
2023-02-17T09:33:48.693Z,8.67
2023-02-17T09:36:18.394Z,8.65
2023-02-17T09:38:45.119Z,8.62
2023-02-17T09:41:27.878Z,8.46
2023-02-17T09:43:55.418Z,8.49
2023-02-17T09:46:32.121Z,8.40
2023-02-17T09:49:08.968Z,8.57
2023-02-17T09:51:39.236Z,8.42
2023-02-17T09:54:20.662Z,8.46
2023-02-17T09:56:50.689Z,8.47
2023-02-17T09:59:39.814Z,8.55
2023-02-17T10:02:14.415Z,8.47
2023-02-17T10:04:45.250Z,8.69
2023-02-17T10:07:19.986Z,8.87
2023-02-17T10:09:52.661Z,9.14
2023-02-17T10:12:25.372Z,9.17
2023-02-17T10:14:56.249Z,9.12
2023-02-17T10:17:44.444Z,9.16
2023-02-17T10:20:13.705Z,9.41
2023-02-17T10:22:44.136Z,9.46
2023-02-17T10:25:16.721Z,9.58
2023-02-17T10:27:51.432Z,9.70
2023-02-17T10:30:53.518Z,9.79
2023-02-17T10:33:35.102Z,10.16
2023-02-17T10:36:11.209Z,10.22
2023-02-17T10:39:14.341Z,10.04
2023-02-17T10:41:44.601Z,9.88
2023-02-17T10:44:19.856Z,9.88
2023-02-17T10:46:48.487Z,9.93
2023-02-17T10:49:42.212Z,9.73
2023-02-17T10:52:15.708Z,9.60
2023-02-17T10:54:52.005Z,9.48
2023-02-17T10:57:19.584Z,9.30
2023-02-17T10:59:47.863Z,9.24
2023-02-17T11:02:17.006Z,9.27
2023-02-17T11:04:45.844Z,9.17
2023-02-17T11:07:14.687Z,9.04
2023-02-17T11:09:47.935Z,9.26
2023-02-17T11:12:20.634Z,9.22
2023-02-17T11:14:50.205Z,9.22
2023-02-17T11:17:25.400Z,9.16
2023-02-17T11:19:56.380Z,9.20
2023-02-17T11:22:31.801Z,9.18
2023-02-17T11:25:04.346Z,9.21
2023-02-17T11:27:30.784Z,9.34
2023-02-17T11:30:09.318Z,9.11
2023-02-17T11:32:36.199Z,9.15
2023-02-17T11:35:06.142Z,9.28
2023-02-17T11:37:33.772Z,9.41
2023-02-17T11:40:00.295Z,9.42
2023-02-17T11:42:29.073Z,9.71
2023-02-17T11:44:58.238Z,9.95
2023-02-17T11:47:48.469Z,9.74
2023-02-17T11:50:14.846Z,9.82
2023-02-17T11:52:55.093Z,10.01
2023-02-17T11:55:35.306Z,9.92
2023-02-17T11:58:10.542Z,9.80
2023-02-17T12:00:51.457Z,9.85
2023-02-17T12:03:31.335Z,9.62
2023-02-17T12:06:24.067Z,9.80
2023-02-17T12:09:03.832Z,9.96
2023-02-17T12:11:40.478Z,10.25
2023-02-17T12:14:47.106Z,10.21
2023-02-17T12:17:26.437Z,10.44
2023-02-17T12:20:20.282Z,10.37
2023-02-17T12:23:07.839Z,10.22
2023-02-17T12:25:44.256Z,10.46
2023-02-17T12:28:10.762Z,10.69
2023-02-17T12:30:51.816Z,10.74
2023-02-17T12:33:38.743Z,10.64
2023-02-17T12:36:08.306Z,10.77
2023-02-17T12:38:41.734Z,10.87
2023-02-17T12:41:21.661Z,10.74
2023-02-17T12:44:02.684Z,10.59
2023-02-17T12:46:36.848Z,10.34
2023-02-17T12:49:11.444Z,10.42
2023-02-17T12:51:48.353Z,10.27
2023-02-17T12:54:26.872Z,10.12
2023-02-17T12:57:15.092Z,10.43
2023-02-17T12:59:47.426Z,10.21
2023-02-17T13:02:16.856Z,9.93
2023-02-17T13:04:47.318Z,9.85
2023-02-17T13:07:44.757Z,9.82
2023-02-17T13:10:26.380Z,9.75
2023-02-17T13:12:59.665Z,9.90
2023-02-17T13:15:36.276Z,10.05
2023-02-17T13:18:24.496Z,10.38
2023-02-17T13:20:52.328Z,10.58
2023-02-17T13:23:39.940Z,10.84
2023-02-17T13:26:26.054Z,10.65
2023-02-17T13:28:55.266Z,10.37
2023-02-17T13:31:26.665Z,10.34
2023-02-17T13:33:59.163Z,10.16
2023-02-17T13:36:28.349Z,10.14
2023-02-17T13:39:26.455Z,10.17
2023-02-17T13:41:57.850Z,10.19
2023-02-17T13:44:32.329Z,10.21
2023-02-17T13:47:02.907Z,10.32
2023-02-17T13:49:33.902Z,10.33
2023-02-17T13:52:09.277Z,10.35
2023-02-17T13:54:35.889Z,10.35
2023-02-17T13:57:02.334Z,10.09
2023-02-17T13:59:29.113Z,9.89
2023-02-17T14:01:55.553Z,10.09
2023-02-17T14:04:25.794Z,10.26
2023-02-17T14:06:56.131Z,10.28
2023-02-17T14:09:34.278Z,10.34
2023-02-17T14:12:07.453Z,10.20
2023-02-17T14:14:37.367Z,10.23
2023-02-17T14:17:06.752Z,10.17
2023-02-17T14:19:48.212Z,10.17
2023-02-17T14:22:30.595Z,10.18
2023-02-17T14:25:07.860Z,10.15
2023-02-17T14:27:48.673Z,10.08
2023-02-17T14:30:38.002Z,9.86
2023-02-17T14:33:20.048Z,9.91
2023-02-17T14:36:02.716Z,9.93
2023-02-17T14:38:39.802Z,9.96
2023-02-17T14:41:10.074Z,9.89
2023-02-17T14:43:36.559Z,9.98
2023-02-17T14:46:03.523Z,9.82
2023-02-17T14:48:29.939Z,9.82
2023-02-17T14:50:57.303Z,9.78
2023-02-17T14:53:30.597Z,9.84
2023-02-17T14:56:09.377Z,9.78
2023-02-17T14:58:36.188Z,9.82
2023-02-17T15:01:02.665Z,9.90
2023-02-17T15:03:29.154Z,9.93
2023-02-17T15:05:55.670Z,9.77
2023-02-17T15:08:29.778Z,9.80
2023-02-17T15:10:56.239Z,9.93
2023-02-17T15:13:22.682Z,9.92
2023-02-17T15:15:49.703Z,9.93
2023-02-17T15:18:18.872Z,10.14
2023-02-17T15:20:47.884Z,10.16
2023-02-17T15:23:26.209Z,10.07
2023-02-17T15:25:54.749Z,10.16
2023-02-17T15:28:22.240Z,10.16
2023-02-17T15:30:52.754Z,10.12
2023-02-17T15:33:20.903Z,10.01
2023-02-17T15:35:50.880Z,10.03
2023-02-17T15:38:17.383Z,10.01
2023-02-17T15:40:43.910Z,9.97
2023-02-17T15:43:15.213Z,9.99
2023-02-17T15:45:41.846Z,9.87
2023-02-17T15:48:23.738Z,9.87
2023-02-17T15:50:50.258Z,9.78
2023-02-17T15:53:16.646Z,9.80
2023-02-17T15:55:43.074Z,9.83
2023-02-17T15:58:21.170Z,9.96
2023-02-17T16:00:49.786Z,10.26
2023-02-17T16:03:16.976Z,10.31
2023-02-17T16:05:44.575Z,10.31
2023-02-17T16:08:11.368Z,10.46
2023-02-17T16:10:40.378Z,10.47
2023-02-17T16:13:07.908Z,10.60
2023-02-17T16:15:35.813Z,10.71
2023-02-17T16:18:02.253Z,10.57
2023-02-17T16:20:34.648Z,10.45
2023-02-17T16:23:02.168Z,10.43
2023-02-17T16:25:29.634Z,10.32
2023-02-17T16:27:56.358Z,10.26
2023-02-17T16:30:26.839Z,10.10
2023-02-17T16:32:53.358Z,9.99
2023-02-17T16:35:22.706Z,9.95
2023-02-17T16:37:57.511Z,9.91
2023-02-17T16:40:28.326Z,9.91
2023-02-17T16:42:54.918Z,9.82
2023-02-17T16:45:24.177Z,9.82
2023-02-17T16:47:53.577Z,9.73
2023-02-17T16:50:32.007Z,9.68
2023-02-17T16:53:04.361Z,9.53
2023-02-17T16:55:33.226Z,9.46
2023-02-17T16:57:59.803Z,9.28
2023-02-17T17:00:33.048Z,9.27
2023-02-17T17:02:59.721Z,9.24
2023-02-17T17:05:28.488Z,9.10
2023-02-17T17:07:55.798Z,9.08
2023-02-17T17:10:25.783Z,9.11
2023-02-17T17:12:52.217Z,8.98
2023-02-17T17:15:19.099Z,8.94
2023-02-17T17:17:54.892Z,8.84
2023-02-17T17:20:26.793Z,8.80
2023-02-17T17:22:53.639Z,8.81
2023-02-17T17:25:20.133Z,8.75
2023-02-17T17:27:46.578Z,8.73
2023-02-17T17:30:17.928Z,8.72
2023-02-17T17:32:44.422Z,8.71
2023-02-17T17:35:11.135Z,8.70
2023-02-17T17:37:39.393Z,8.64
2023-02-17T17:40:07.610Z,8.66
2023-02-17T17:42:37.493Z,8.68
2023-02-17T17:45:04.098Z,8.66
2023-02-17T17:47:31.049Z,8.67
2023-02-17T17:49:57.815Z,8.67
2023-02-17T17:52:24.334Z,8.63
2023-02-17T17:54:50.872Z,8.65
2023-02-17T17:57:17.364Z,8.61
2023-02-17T17:59:43.805Z,8.65
2023-02-17T18:02:10.244Z,8.66
2023-02-17T18:04:36.741Z,8.65
2023-02-17T18:07:03.357Z,8.61
2023-02-17T18:09:34.180Z,8.55
2023-02-17T18:12:08.648Z,8.62
2023-02-17T18:14:37.690Z,8.60
2023-02-17T18:17:05.294Z,8.59
2023-02-17T18:19:32.485Z,8.60
2023-02-17T18:21:58.996Z,8.65
2023-02-17T18:24:25.596Z,8.65
2023-02-17T18:26:52.225Z,8.62
2023-02-17T18:29:19.342Z,8.64
2023-02-17T18:31:46.291Z,8.64
2023-02-17T18:34:12.875Z,8.66
2023-02-17T18:36:39.323Z,8.62
2023-02-17T18:39:05.855Z,8.64
2023-02-17T18:41:34.510Z,8.62
2023-02-17T18:44:02.969Z,8.65
2023-02-17T18:46:30.243Z,8.69
2023-02-17T18:48:56.718Z,8.68
2023-02-17T18:51:23.885Z,8.70
2023-02-17T18:53:50.924Z,8.79
2023-02-17T18:56:20.745Z,8.84
2023-02-17T18:58:49.493Z,8.89
2023-02-17T19:01:18.723Z,8.89
2023-02-17T19:03:45.389Z,8.90
2023-02-17T19:06:17.679Z,8.97
2023-02-17T19:08:44.799Z,8.97
2023-02-17T19:11:11.875Z,8.98
2023-02-17T19:13:38.571Z,8.90
2023-02-17T19:16:17.416Z,8.83
2023-02-17T19:18:45.027Z,8.82
2023-02-17T19:21:12.152Z,8.87
2023-02-17T19:23:40.452Z,8.93
2023-02-17T19:26:09.364Z,8.93
2023-02-17T19:28:38.035Z,8.98
2023-02-17T19:31:09.768Z,8.96
2023-02-17T19:33:36.705Z,8.97
2023-02-17T19:36:08.868Z,8.95
2023-02-17T19:38:36.331Z,8.97
2023-02-17T19:41:08.005Z,9.05
2023-02-17T19:43:34.929Z,9.03
2023-02-17T19:46:01.432Z,8.96
2023-02-17T19:48:27.940Z,9.01
2023-02-17T19:51:03.249Z,8.97
2023-02-17T19:53:31.408Z,8.91
2023-02-17T19:56:22.659Z,8.89
2023-02-17T19:58:50.179Z,8.82
2023-02-17T20:01:22.641Z,8.92
2023-02-17T20:03:49.674Z,8.82
2023-02-17T20:06:21.526Z,8.84
2023-02-17T20:08:53.112Z,8.79
2023-02-17T20:11:19.592Z,8.71
2023-02-17T20:13:46.745Z,8.78
2023-02-17T20:16:15.429Z,8.71
2023-02-17T20:18:48.574Z,8.65
2023-02-17T20:21:21.492Z,8.66
2023-02-17T20:23:48.496Z,8.68
2023-02-17T20:26:18.562Z,8.66
2023-02-17T20:28:45.484Z,8.60
2023-02-17T20:31:12.421Z,8.66
2023-02-17T20:33:39.507Z,8.69
2023-02-17T20:36:07.546Z,8.65
2023-02-17T20:38:34.598Z,8.61
2023-02-17T20:41:01.595Z,8.53
2023-02-17T20:43:28.213Z,8.52
2023-02-17T20:45:55.160Z,8.50
2023-02-17T20:48:27.262Z,8.40
2023-02-17T20:50:57.988Z,8.45
2023-02-17T20:53:26.226Z,8.42
2023-02-17T20:55:52.832Z,8.33
2023-02-17T20:58:19.323Z,8.36
2023-02-17T21:00:46.199Z,8.33
2023-02-17T21:03:12.860Z,8.31
2023-02-17T21:05:39.419Z,8.31
2023-02-17T21:08:06.222Z,8.34
2023-02-17T21:10:33.172Z,8.31
2023-02-17T21:12:59.844Z,8.26
2023-02-17T21:15:27.292Z,8.24
2023-02-17T21:17:54.115Z,8.24
2023-02-17T21:20:22.071Z,8.25
2023-02-17T21:22:49.529Z,8.24
2023-02-17T21:25:16.034Z,8.20
2023-02-17T21:27:42.637Z,8.20
2023-02-17T21:30:10.675Z,8.17
2023-02-17T21:32:37.603Z,8.13
2023-02-17T21:35:04.118Z,8.12
2023-02-17T21:37:30.994Z,8.16
2023-02-17T21:39:57.787Z,8.17
2023-02-17T21:42:45.639Z,8.12
2023-02-17T21:45:12.275Z,8.12
2023-02-17T21:47:38.725Z,8.17
2023-02-17T21:50:05.893Z,8.12
2023-02-17T21:52:32.316Z,8.10
2023-02-17T21:55:00.846Z,8.14
2023-02-17T21:57:27.292Z,8.15
2023-02-17T21:59:53.711Z,8.15
2023-02-17T22:02:20.118Z,8.16
2023-02-17T22:04:46.512Z,8.11
2023-02-17T22:07:12.950Z,8.17
2023-02-17T22:09:39.341Z,8.21
2023-02-17T22:12:06.134Z,8.23
2023-02-17T22:14:32.547Z,8.28
2023-02-17T22:16:58.962Z,8.31
2023-02-17T22:19:25.650Z,8.32
2023-02-17T22:21:53.080Z,8.30
2023-02-17T22:24:21.238Z,8.32
2023-02-17T22:26:49.270Z,8.33
2023-02-17T22:29:15.717Z,8.32
2023-02-17T22:31:42.288Z,8.32
2023-02-17T22:34:11.900Z,8.28
2023-02-17T22:36:38.500Z,8.27
2023-02-17T22:39:07.550Z,8.30
2023-02-17T22:41:34.963Z,8.33
2023-02-17T22:44:02.921Z,8.30
2023-02-17T22:46:29.350Z,8.40
2023-02-17T22:48:56.900Z,8.43
2023-02-17T22:51:27.011Z,8.46
2023-02-17T22:53:53.476Z,8.41
2023-02-17T22:56:21.304Z,8.40
2023-02-17T22:58:48.673Z,8.43
2023-02-17T23:01:17.807Z,8.48
2023-02-17T23:03:45.132Z,8.49
2023-02-17T23:06:18.238Z,8.52
2023-02-17T23:08:45.879Z,8.44
2023-02-17T23:11:15.226Z,8.46
2023-02-17T23:13:43.101Z,8.40
2023-02-17T23:16:11.300Z,8.45
2023-02-17T23:18:38.059Z,8.45
2023-02-17T23:21:11.198Z,8.43
2023-02-17T23:23:37.674Z,8.43
2023-02-17T23:26:04.403Z,8.46
2023-02-17T23:28:31.004Z,8.47
2023-02-17T23:30:57.447Z,8.43
2023-02-17T23:33:24.627Z,8.47
2023-02-17T23:35:51.050Z,8.51
2023-02-17T23:38:20.355Z,8.47
2023-02-17T23:40:51.396Z,8.42
2023-02-17T23:43:18.394Z,8.37
2023-02-17T23:45:44.881Z,8.31
2023-02-17T23:48:11.989Z,8.35
2023-02-17T23:50:38.617Z,8.24
2023-02-17T23:53:05.321Z,8.21
2023-02-17T23:55:32.252Z,8.22
2023-02-17T23:58:00.523Z,8.20
